Time;durP1;ratioP1;P1;durP2;ratioP2;P2;SDS_P1;SDS_P2;PMS_P1;PMS_P2;Temp;Humidity;BMP_temperature;BMP_pressure;BME280_temperature;BME280_humidity;BME280_pressure;Samples;Min_cycle;Max_cycle;Signal;HPM_P1;HPM_P2
2022/05/12 00:00:22;;;;;;;16.35;12.05;;;;;;;16.25;70.81;99929.22;5095246;28;20067;-65
2022/05/12 00:02:48;;;;;;;19.13;12.85;;;;;;;16.25;71.09;99932.69;5094774;28;20067;-65
2022/05/12 00:05:15;;;;;;;17.95;12.18;;;;;;;16.25;71.09;99935.28;5093827;28;20048;-64
2022/05/12 00:07:45;;;;;;;20.55;13.50;;;;;;;16.27;71.11;99945.69;5093869;28;20048;-64
2022/05/12 00:10:14;;;;;;;17.83;11.93;;;;;;;16.26;71.17;99941.38;5072638;28;20045;-65
2022/05/12 00:12:41;;;;;;;17.70;12.35;;;;;;;16.24;70.86;99954.50;5074136;28;20531;-65
2022/05/12 00:15:12;;;;;;;16.73;11.57;;;;;;;16.26;71.17;99954.44;5079627;28;20052;-65
2022/05/12 00:17:40;;;;;;;21.17;14.27;;;;;;;16.26;70.94;99944.84;5094690;28;20052;-65
2022/05/12 00:20:10;;;;;;;21.58;14.65;;;;;;;16.24;71.00;99925.75;5094806;28;20059;-65
2022/05/12 00:22:38;;;;;;;18.58;13.10;;;;;;;16.24;70.99;99917.91;5094793;28;20109;-65
2022/05/12 00:25:13;;;;;;;16.25;11.75;;;;;;;16.27;71.01;99917.78;5094621;28;20044;-65
2022/05/12 00:27:41;;;;;;;;;;;;;;;16.19;71.16;99917.25;5095167;28;20056;-65
2022/05/12 00:30:11;;;;;;;20.25;13.35;;;;;;;16.20;70.97;99913.72;5094697;28;19931;-65
2022/05/12 00:32:41;;;;;;;16.02;11.70;;;;;;;16.21;70.98;99915.44;5094692;28;20079;-65
2022/05/12 00:35:10;;;;;;;16.42;12.10;;;;;;;16.19;70.62;99927.72;5094626;28;20472;-65
2022/05/12 00:37:37;;;;;;;19.48;12.63;;;;;;;16.18;70.92;99928.63;5098244;28;20047;-65
2022/05/12 00:40:07;;;;;;;15.85;11.13;;;;;;;16.18;70.83;99918.19;5096957;28;20055;-65
2022/05/12 00:42:36;;;;;;;16.48;11.80;;;;;;;16.16;70.71;99912.16;5099282;28;20048;-65
2022/05/12 00:45:05;;;;;;;17.48;11.95;;;;;;;16.14;70.73;99908.78;5093979;28;20479;-65
2022/05/12 00:47:32;;;;;;;25.17;17.92;;;;;;;16.10;70.58;99901.94;5093022;28;20492;-65
2022/05/12 00:50:00;;;;;;;22.88;17.50;;;;;;;16.09;70.79;99915.94;5094122;28;20044;-65
2022/05/12 00:52:29;;;;;;;18.90;13.80;;;;;;;16.08;70.36;99906.41;5094286;28;20048;-65
2022/05/12 00:55:01;;;;;;;16.52;12.13;;;;;;;16.07;70.35;99920.38;5093819;28;20480;-65
2022/05/12 00:57:32;;;;;;;17.10;12.68;;;;;;;16.04;70.30;99912.69;5094158;28;20059;-65
2022/05/12 01:00:05;;;;;;;15.38;12.27;;;;;;;16.01;69.97;99907.59;5093946;28;20048;-65
2022/05/12 01:02:41;;;;;;;18.35;13.55;;;;;;;15.97;70.08;99904.25;5093933;28;20052;-65
2022/05/12 01:05:09;;;;;;;16.77;12.60;;;;;;;15.95;69.95;99905.25;5093411;28;20052;-65
2022/05/12 01:07:38;;;;;;;18.05;13.23;;;;;;;15.88;70.13;99902.06;5093430;28;20453;-65
2022/05/12 01:10:09;;;;;;;17.88;13.15;;;;;;;15.82;70.04;99901.47;5093945;28;20055;-65
2022/05/12 01:12:40;;;;;;;18.45;12.25;;;;;;;15.78;70.28;99896.38;5094058;28;20136;-64
2022/05/12 01:15:10;;;;;;;18.85;13.20;;;;;;;15.73;70.47;99900.94;5093859;28;20052;-65
2022/05/12 01:17:38;;;;;;;17.63;12.82;;;;;;;15.72;70.36;99886.19;5092450;28;20159;-64
2022/05/12 01:20:07;;;;;;;18.45;13.23;;;;;;;15.69;70.35;99885.47;5093515;28;20048;-64
2022/05/12 01:22:46;;;;;;;18.05;12.88;;;;;;;15.67;69.85;99892.53;5093615;28;20059;-64
2022/05/12 01:25:22;;;;;;;16.17;12.05;;;;;;;15.62;69.93;99890.13;5093439;28;20110;-64
2022/05/12 01:27:49;;;;;;;18.63;13.27;;;;;;;15.58;70.22;99888.50;5093178;28;20067;-65
2022/05/12 01:30:20;;;;;;;17.50;12.20;;;;;;;15.55;69.94;99885.16;5093560;28;20048;-64
2022/05/12 01:32:48;;;;;;;16.77;12.65;;;;;;;15.51;69.70;99879.22;5093706;28;20063;-65
2022/05/12 01:35:18;;;;;;;17.52;13.55;;;;;;;15.47;70.06;99891.53;5093390;28;20052;-65
2022/05/12 01:37:46;;;;;;;20.20;14.63;;;;;;;15.43;70.19;99891.75;5098038;28;20344;-65
2022/05/12 01:40:18;;;;;;;19.48;14.13;;;;;;;15.40;70.48;99884.03;5094747;28;20044;-65
2022/05/12 01:42:45;;;;;;;16.50;12.70;;;;;;;15.37;70.56;99894.59;5097744;28;20056;-65
2022/05/12 01:45:14;;;;;;;25.13;13.35;;;;;;;15.36;70.40;99890.28;5093227;28;20047;-65
2022/05/12 01:47:43;;;;;;;19.73;13.35;;;;;;;15.33;70.60;99893.03;5092880;28;20071;-65
2022/05/12 01:50:11;;;;;;;16.17;12.48;;;;;;;15.33;70.63;99893.88;5092867;28;20471;-65
2022/05/12 01:52:43;;;;;;;21.52;14.55;;;;;;;15.37;70.64;99887.63;5093060;28;20070;-65
2022/05/12 01:55:12;;;;;;;17.27;12.50;;;;;;;15.37;70.50;99877.19;5093322;28;20063;-65
2022/05/12 01:57:42;;;;;;;19.38;11.80;;;;;;;15.39;70.14;99871.88;5093098;28;20177;-65
2022/05/12 02:00:13;;;;;;;18.77;13.23;;;;;;;15.40;70.16;99863.13;5092811;28;20460;-65
2022/05/12 02:02:41;;;;;;;22.08;13.40;;;;;;;15.35;70.17;99859.88;5093122;28;20113;-65
2022/05/12 02:05:11;;;;;;;19.17;13.38;;;;;;;15.33;70.68;99872.16;5092811;28;20063;-65
2022/05/12 02:07:38;;;;;;;17.05;12.52;;;;;;;15.29;70.24;99887.09;5082103;28;20056;-65
2022/05/12 02:10:09;;;;;;;20.92;13.75;;;;;;;15.29;70.16;99896.69;5091426;28;20416;-65
2022/05/12 02:12:36;;;;;;;19.23;14.13;;;;;;;15.27;70.46;99891.53;5092460;28;20675;-65
2022/05/12 02:15:06;;;;;;;17.85;12.90;;;;;;;15.28;70.51;99879.31;5092914;28;20051;-65
2022/05/12 02:17:33;;;;;;;19.63;13.32;;;;;;;15.27;70.59;99883.69;5092950;28;20094;-65
2022/05/12 02:20:01;;;;;;;20.23;15.13;;;;;;;15.29;70.59;99901.91;5092191;28;20050;-65
2022/05/12 02:22:28;;;;;;;18.88;13.70;;;;;;;15.30;70.80;99921.88;5091844;28;20052;-65
2022/05/12 02:24:56;;;;;;;23.67;15.32;;;;;;;15.30;71.03;99914.06;5092543;28;20460;-65
2022/05/12 02:27:24;;;;;;;20.40;14.20;;;;;;;15.32;70.70;99918.28;5093080;28;20476;-65
2022/05/12 02:29:51;;;;;;;24.08;14.05;;;;;;;15.34;71.08;99910.41;5096802;28;20060;-65
2022/05/12 02:32:20;;;;;;;24.25;15.45;;;;;;;15.36;70.79;99903.34;5097058;28;20048;-65
2022/05/12 02:34:48;;;;;;;24.23;15.77;;;;;;;15.37;70.92;99884.16;5096850;28;20051;-65
2022/05/12 02:37:16;;;;;;;24.85;15.45;;;;;;;15.37;70.88;99873.72;5096665;28;20170;-65
2022/05/12 02:39:44;;;;;;;25.13;16.70;;;;;;;15.38;70.83;99865.81;5096606;28;20106;-65
2022/05/12 02:42:12;;;;;;;23.08;15.43;;;;;;;15.41;70.66;99859.63;5095872;28;20056;-65
2022/05/12 02:44:40;;;;;;;23.98;16.67;;;;;;;15.38;70.94;99849.31;5096511;28;20059;-65
2022/05/12 02:47:08;;;;;;;22.52;15.38;;;;;;;15.35;71.05;99842.44;5095709;28;20052;-65
2022/05/12 02:49:37;;;;;;;23.90;15.15;;;;;;;15.34;71.30;99834.69;5096137;28;20348;-65
2022/05/12 02:52:06;;;;;;;20.45;14.77;;;;;;;15.30;71.19;99835.72;5096381;28;20048;-65
2022/05/12 02:54:33;;;;;;;23.92;15.95;;;;;;;15.31;71.22;99827.81;5081505;28;20135;-65
2022/05/12 02:57:00;;;;;;;19.10;13.90;;;;;;;15.31;71.60;99827.81;5076660;28;20067;-65
2022/05/12 02:59:26;;;;;;;20.33;14.50;;;;;;;15.32;71.68;99818.22;5076074;28;20350;-65
2022/05/12 03:01:55;;;;;;;22.75;16.17;;;;;;;15.30;71.83;99820.06;5076403;28;20049;-65
2022/05/12 03:04:21;;;;;;;20.63;15.90;;;;;;;15.32;71.55;99818.22;5076337;28;20074;-65
2022/05/12 03:06:51;;;;;;;21.05;15.90;;;;;;;15.33;71.66;99809.47;5076114;28;20052;-65
2022/05/12 03:09:18;;;;;;;22.35;15.43;;;;;;;15.35;71.59;99818.94;5076371;28;20048;-65
2022/05/12 03:11:45;;;;;;;19.88;14.57;;;;;;;15.39;71.72;99810.06;5076235;28;20044;-65
2022/05/12 03:14:13;;;;;;;20.88;15.57;;;;;;;15.42;71.49;99817.75;5075338;28;20060;-65
2022/05/12 03:16:43;;;;;;;19.85;14.00;;;;;;;15.44;71.64;99807.25;5095012;28;20048;-65
2022/05/12 03:19:11;;;;;;;19.52;14.32;;;;;;;15.44;71.65;99813.31;5096146;28;20453;-65
2022/05/12 03:21:39;;;;;;;21.30;15.27;;;;;;;15.42;71.42;99799.47;5096249;28;20052;-65
2022/05/12 03:24:07;;;;;;;24.27;15.18;;;;;;;15.42;71.57;99811.69;5095877;28;20465;-65
2022/05/12 03:26:34;;;;;;;26.27;18.50;;;;;;;15.43;71.79;99789.88;5095965;28;20048;-65
2022/05/12 03:29:01;;;;;;;19.60;15.98;;;;;;;15.45;71.36;99803.72;5096360;28;20052;-65
2022/05/12 03:31:28;;;;;;;22.20;15.82;;;;;;;15.44;71.58;99821.16;5096224;28;20048;-65
2022/05/12 03:33:54;;;;;;;24.30;15.27;;;;;;;15.45;71.56;99814.16;5095616;28;20040;-65
2022/05/12 03:36:22;;;;;;;19.98;14.30;;;;;;;15.41;71.89;99829.13;5096018;28;20047;-65
2022/05/12 03:38:48;;;;;;;21.73;15.35;;;;;;;15.37;71.87;99829.31;5102096;28;20047;-65
2022/05/12 03:41:17;;;;;;;23.45;15.00;;;;;;;15.31;72.26;99826.97;5095530;28;20055;-65
2022/05/12 03:46:31;;;;;;;24.35;15.77;;;;;;;15.14;72.80;99810.25;5074926;28;20055;-65
2022/05/12 03:48:57;;;;;;;23.35;16.08;;;;;;;15.12;72.44;99814.69;5075600;28;20139;-65
2022/05/12 03:51:27;;;;;;;23.95;15.95;;;;;;;15.10;72.96;99808.69;5075280;28;20055;-65
2022/05/12 03:53:54;;;;;;;25.30;16.13;;;;;;;15.06;72.93;99809.69;5075074;28;20109;-65
2022/05/12 03:56:22;;;;;;;23.52;16.70;;;;;;;15.08;72.88;99809.63;5075541;28;20056;-65
2022/05/12 03:58:50;;;;;;;21.88;15.85;;;;;;;15.07;73.14;99813.16;5075333;28;20059;-65
2022/05/12 04:01:18;;;;;;;24.23;16.50;;;;;;;15.06;73.43;99817.53;5075065;28;20044;-64
2022/05/12 04:03:45;;;;;;;25.80;17.50;;;;;;;15.02;73.25;99815.97;5075273;28;20052;-65
2022/05/12 04:06:11;;;;;;;28.77;17.40;;;;;;;15.03;73.88;99812.44;5075325;28;20071;-65
2022/05/12 04:08:38;;;;;;;23.67;15.70;;;;;;;15.08;73.89;99805.25;5075032;28;20064;-65
2022/05/12 04:11:07;;;;;;;24.05;17.30;;;;;;;15.14;73.47;99810.25;5075242;28;20048;-65
2022/05/12 04:13:37;;;;;;;23.23;16.50;;;;;;;15.18;73.83;99810.97;5075001;28;20094;-65
2022/05/12 04:16:04;;;;;;;24.15;17.42;;;;;;;15.23;73.75;99818.63;5088930;28;20058;-65
2022/05/12 04:18:32;;;;;;;24.50;17.15;;;;;;;15.25;73.50;99824.63;5095116;28;20052;-65
2022/05/12 04:20:58;;;;;;;23.48;16.77;;;;;;;15.25;73.72;99830.69;5094983;28;20059;-65
2022/05/12 04:23:26;;;;;;;26.17;17.65;;;;;;;15.30;73.57;99856.59;5095139;28;20047;-65
2022/05/12 04:25:55;;;;;;;23.92;15.70;;;;;;;15.31;73.50;99880.03;5095026;28;20063;-65
2022/05/12 04:28:21;;;;;;;21.58;16.15;;;;;;;15.33;73.56;99846.03;5095223;28;20143;-65
2022/05/12 04:30:51;;;;;;;21.50;15.52;;;;;;;15.33;73.85;99856.47;5094635;28;20048;-65
2022/05/12 04:36:01;;;;;;;23.65;16.50;;;;;;;15.30;74.05;99851.38;5094783;28;20089;-65
2022/05/12 04:38:29;;;;;;;24.58;16.67;;;;;;;15.34;74.09;99837.28;5101637;28;20067;-65
2022/05/12 04:40:56;;;;;;;24.15;17.30;;;;;;;15.39;74.03;99843.16;5097445;28;20059;-65
2022/05/12 04:43:24;;;;;;;25.17;17.77;;;;;;;15.42;73.97;99829.97;5074539;28;20048;-65
2022/05/12 04:45:52;;;;;;;27.65;17.05;;;;;;;15.43;73.98;99816.00;5074467;28;20049;-65
2022/05/12 04:48:19;;;;;;;24.25;16.77;;;;;;;15.44;73.92;99818.53;5074369;28;20049;-65
2022/05/12 04:50:45;;;;;;;25.58;17.92;;;;;;;15.46;73.67;99805.44;5074097;28;20040;-65
2022/05/12 04:53:13;;;;;;;24.88;17.15;;;;;;;15.48;74.14;99793.16;5074191;28;20071;-65
2022/05/12 04:55:39;;;;;;;23.95;17.10;;;;;;;15.47;73.77;99788.84;5074215;28;20052;-65
2022/05/12 04:58:06;;;;;;;23.38;16.75;;;;;;;15.48;74.09;99788.78;5073925;28;20484;-65
2022/05/12 05:00:36;;;;;;;25.55;17.50;;;;;;;15.47;74.19;99786.22;5073686;28;20059;-65
2022/05/12 05:03:06;;;;;;;23.30;16.77;;;;;;;15.50;74.22;99780.03;5074123;28;20052;-65
2022/05/12 05:05:34;;;;;;;23.67;16.83;;;;;;;15.52;74.09;99762.53;5073851;28;20056;-65
2022/05/12 05:08:01;;;;;;;26.42;18.30;;;;;;;15.56;74.25;99753.63;5073886;28;20059;-65
2022/05/12 05:10:28;;;;;;;26.83;17.25;;;;;;;15.56;74.40;99744.03;5073810;28;20056;-64
2022/05/12 05:12:55;;;;;;;27.63;18.35;;;;;;;15.57;74.35;99758.78;5073946;28;20049;-65
2022/05/12 05:15:24;;;;;;;25.67;18.33;;;;;;;15.58;74.67;99772.72;5081862;28;20140;-65
2022/05/12 05:17:52;;;;;;;24.15;17.05;;;;;;;15.60;74.46;99782.19;5093636;28;20557;-65
2022/05/12 05:20:24;;;;;;;25.52;17.73;;;;;;;15.64;74.91;99769.88;5094133;28;20076;-65
2022/05/12 05:22:51;;;;;;;24.50;18.10;;;;;;;15.69;74.83;99781.81;5094078;28;20052;-65
2022/05/12 05:25:18;;;;;;;28.45;18.85;;;;;;;15.77;75.12;99790.16;5093799;28;20052;-65
2022/05/12 05:27:45;;;;;;;25.27;17.65;;;;;;;15.83;74.91;99801.25;5093856;28;20048;-65
2022/05/12 05:30:15;;;;;;;23.70;16.88;;;;;;;15.90;74.70;99800.91;5093989;28;20052;-65
2022/05/12 05:32:41;;;;;;;23.17;16.98;;;;;;;15.93;74.65;99799.91;5093819;28;20052;-65
2022/05/12 05:35:12;;;;;;;25.92;18.02;;;;;;;15.97;74.83;99812.78;5093810;28;20052;-65
2022/05/12 05:37:42;;;;;;;25.15;18.17;;;;;;;15.99;74.61;99825.78;5098092;28;20080;-65
2022/05/12 05:40:09;;;;;;;21.55;16.27;;;;;;;16.00;74.55;99837.94;5095279;28;20380;-65
2022/05/12 05:42:38;;;;;;;24.20;16.25;;;;;;;16.02;74.95;99846.56;5083121;28;20048;-65
2022/05/12 05:45:18;;;;;;;27.65;17.08;;;;;;;16.04;74.63;99844.72;5073254;28;20056;-65
2022/05/12 05:47:50;;;;;;;27.48;18.02;;;;;;;16.04;75.14;99839.50;5072765;28;20610;-65
2022/05/12 05:50:21;;;;;;;25.75;17.05;;;;;;;16.08;75.42;99846.28;5073615;28;20045;-65
2022/05/12 05:55:36;;;;;;;32.53;21.23;;;;;;;16.17;75.20;99861.56;5073230;28;20491;-65
2022/05/12 05:58:04;;;;;;;29.95;18.15;;;;;;;16.19;75.43;99864.13;5073103;28;20155;-65
2022/05/12 06:00:32;;;;;;;26.67;17.23;;;;;;;16.20;75.36;99887.59;5072884;28;20465;-65
2022/05/12 06:03:01;;;;;;;25.13;17.38;;;;;;;16.20;75.28;99882.34;5072290;28;20397;-65
2022/05/12 06:05:28;;;;;;;27.38;19.58;;;;;;;16.19;75.05;99874.56;5073162;28;20139;-65
2022/05/12 06:07:57;;;;;;;27.17;18.58;;;;;;;16.15;74.93;99829.41;5073140;28;20173;-65
2022/05/12 06:10:24;;;;;;;24.65;16.38;;;;;;;16.10;75.16;99886.25;5075601;28;20049;-64
2022/05/12 06:12:50;;;;;;;27.30;18.33;;;;;;;16.08;75.12;99877.63;5077631;28;20384;-64
2022/05/12 06:15:17;;;;;;;27.08;18.52;;;;;;;16.08;75.29;99856.72;5079623;28;20418;-65
2022/05/12 06:17:44;;;;;;;30.27;19.45;;;;;;;16.09;74.96;99884.56;5092682;28;20055;-65
2022/05/12 06:20:11;;;;;;;29.60;18.55;;;;;;;16.12;75.17;99889.66;5089301;28;20048;-59
2022/05/12 06:22:38;;;;;;;26.58;18.23;;;;;;;16.17;75.14;99899.94;5086039;28;20052;-61
2022/05/12 06:25:10;;;;;;;26.80;17.80;;;;;;;16.21;75.09;99909.34;5093538;28;20416;-58
2022/05/12 06:27:36;;;;;;;29.25;19.20;;;;;;;16.23;75.01;99908.38;5104482;28;20082;-60
2022/05/12 06:30:11;;;;;;;23.70;17.63;;;;;;;16.23;74.65;99913.59;5096536;28;20689;-59
2022/05/12 06:32:38;;;;;;;23.40;16.42;;;;;;;16.23;74.77;99918.81;5089667;28;20043;-59
2022/05/12 06:35:05;;;;;;;25.55;17.33;;;;;;;16.24;74.60;99930.97;5082350;28;20078;-58
2022/05/12 06:37:32;;;;;;;27.02;19.73;;;;;;;16.23;74.57;99923.19;5089232;28;20377;-59
2022/05/12 06:39:58;;;;;;;29.63;19.52;;;;;;;16.23;74.63;99939.75;5084083;28;20555;-57
2022/05/12 06:42:26;;;;;;;25.50;17.80;;;;;;;16.27;74.95;99958.75;5094133;28;20051;-58
2022/05/12 06:44:54;;;;;;;28.08;19.63;;;;;;;16.28;74.69;99969.16;5098165;28;20043;-60
2022/05/12 06:47:20;;;;;;;27.70;18.58;;;;;;;16.26;74.76;99957.91;5102811;28;20062;-61
2022/05/12 06:49:50;;;;;;;23.10;17.27;;;;;;;16.28;74.52;99968.31;5106155;28;20056;-60
2022/05/12 06:52:17;;;;;;;21.42;15.00;;;;;;;16.20;74.11;99966.03;5096000;28;20044;-59
2022/05/12 06:54:44;;;;;;;20.08;14.25;;;;;;;16.16;73.46;99964.47;5108097;28;20364;-59
2022/05/12 06:57:11;;;;;;;16.83;11.25;;;;;;;16.09;73.10;99968.22;5100718;28;20043;-59
2022/05/12 06:59:40;;;;;;;17.02;10.35;;;;;;;16.11;72.82;99987.31;5100449;28;20048;-60
2022/05/12 07:02:08;;;;;;;15.95;10.40;;;;;;;16.13;72.35;99998.59;5108231;28;20422;-62
2022/05/12 07:04:34;;;;;;;20.17;8.32;;;;;;;16.14;71.52;100005.50;5095547;28;20452;-60
2022/05/12 07:07:01;;;;;;;12.07;6.93;;;;;;;16.13;70.51;100006.44;5095352;28;20048;-61
2022/05/12 07:09:29;;;;;;;11.82;5.90;;;;;;;16.15;69.80;100015.06;5100880;28;20055;-60
2022/05/12 07:11:55;;;;;;;11.65;4.65;;;;;;;16.14;69.09;100029.03;5091968;28;20448;-60
2022/05/12 07:14:21;;;;;;;10.27;4.70;;;;;;;16.04;68.35;100044.25;5111269;28;20058;-60
2022/05/12 07:16:49;;;;;;;10.00;4.82;;;;;;;16.00;68.04;100073.19;5096077;28;20044;-62
2022/05/12 07:19:16;;;;;;;8.40;4.03;;;;;;;15.96;67.33;100067.22;5094370;28;20052;-60
2022/05/12 07:27:11;;;;;;;10.73;3.03;;;;;;;15.83;66.83;100096.53;5107441;28;20139;-59
2022/05/12 07:29:37;;;;;;;5.32;2.58;;;;;;;15.72;66.84;100110.88;5107950;28;20051;-59
2022/05/12 07:32:06;;;;;;;8.80;2.17;;;;;;;15.56;67.12;100124.56;5100315;28;20067;-59
2022/05/12 07:34:32;;;;;;;4.38;2.20;;;;;;;15.39;67.93;100127.81;5112188;28;20052;-60
2022/05/12 07:36:59;;;;;;;4.82;1.70;;;;;;;15.23;67.80;100132.75;5102495;28;20051;-59
2022/05/12 07:39:29;;;;;;;4.38;2.05;;;;;;;15.22;68.36;100130.22;5097000;28;20048;-59
2022/05/12 07:41:57;;;;;;;5.53;1.48;;;;;;;15.21;68.16;100144.16;5095047;28;20504;-59
2022/05/12 07:44:31;;;;;;;4.75;1.15;;;;;;;15.10;69.34;100148.03;5112302;28;20040;-60
2022/05/12 07:46:59;;;;;;;5.95;1.45;;;;;;;15.15;68.17;100133.03;5101968;28;20044;-60
2022/05/12 07:49:33;;;;;;;2.10;1.23;;;;;;;15.33;67.90;100135.88;5105237;28;20130;-61
2022/05/12 07:52:00;;;;;;;3.05;1.38;;;;;;;15.46;67.58;100134.50;5110705;28;20050;-58
2022/05/12 07:54:27;;;;;;;1.95;1.02;;;;;;;15.62;67.21;100140.91;5098656;28;20536;-60
2022/05/12 07:56:54;;;;;;;5.05;2.20;;;;;;;15.81;67.10;100132.34;5109825;28;20070;-61
2022/05/12 07:59:22;;;;;;;5.03;1.95;;;;;;;16.01;66.58;100130.63;5105124;28;20043;-62
2022/05/12 08:01:52;;;;;;;5.80;1.70;;;;;;;16.30;66.18;100134.69;5101822;28;20052;-60
2022/05/12 08:04:19;;;;;;;6.68;1.83;;;;;;;16.63;65.49;100147.25;5093619;28;20555;-60
2022/05/12 08:06:47;;;;;;;6.32;1.73;;;;;;;16.92;64.34;100148.69;5088836;28;20044;-59
2022/05/12 08:09:13;;;;;;;1.88;0.90;;;;;;;17.30;63.03;100144.38;5085177;28;20052;-61
2022/05/12 08:11:41;;;;;;;4.00;1.17;;;;;;;17.61;61.68;100134.16;5095814;28;20388;-60
2022/05/12 08:14:08;;;;;;;6.70;1.20;;;;;;;17.93;61.07;100155.44;5082631;28;20075;-58
2022/05/12 08:16:35;;;;;;;1.02;0.70;;;;;;;18.24;59.54;100171.41;5097452;28;20157;-60
2022/05/12 08:19:02;;;;;;;5.13;1.17;;;;;;;18.54;58.79;100183.94;5107925;28;20479;-61
2022/05/12 08:21:29;;;;;;;4.40;0.90;;;;;;;18.83;57.58;100196.50;5094912;28;20127;-62
2022/05/12 08:23:57;;;;;;;3.85;1.00;;;;;;;19.10;57.41;100210.00;5087780;28;20341;-61
2022/05/12 08:26:24;;;;;;;1.75;0.70;;;;;;;19.31;56.27;100213.31;5095768;28;20059;-62
2022/05/12 08:28:51;;;;;;;1.60;0.70;;;;;;;19.35;55.37;100209.56;5101988;28;20383;-62
2022/05/12 08:31:20;;;;;;;3.58;0.80;;;;;;;19.42;54.27;100216.22;5097847;28;20040;-60
2022/05/12 08:33:46;;;;;;;2.60;0.80;;;;;;;19.38;53.99;100246.22;5107985;28;20047;-60
2022/05/12 08:36:13;;;;;;;7.13;0.68;;;;;;;19.21;53.51;100235.69;5098014;28;20064;-60
2022/05/12 08:38:43;;;;;;;3.92;0.95;;;;;;;19.03;53.24;100249.78;5097870;28;20142;-60
2022/05/12 08:41:24;;;;;;;2.58;0.40;;;;;;;18.79;52.91;100276.38;5087647;28;20044;-60
2022/05/12 08:43:59;;;;;;;2.75;0.68;;;;;;;18.49;53.82;100269.94;5086647;28;20051;-58
2022/05/12 08:46:29;;;;;;;5.68;0.80;;;;;;;18.40;54.53;100271.22;5098679;28;20083;-59
2022/05/12 08:49:04;;;;;;;2.88;0.60;;;;;;;18.33;54.61;100289.97;5107867;28;20436;-59
2022/05/12 08:51:40;;;;;;;4.28;0.60;;;;;;;18.16;54.18;100294.19;5105348;28;20077;-60
2022/05/12 08:54:14;;;;;;;2.53;0.55;;;;;;;18.12;54.69;100286.56;5098190;28;20052;-59
2022/05/12 08:56:47;;;;;;;5.07;0.60;;;;;;;18.13;54.81;100294.34;5082357;28;20054;-60
2022/05/12 08:59:17;;;;;;;1.83;0.50;;;;;;;18.23;55.22;100285.16;5091077;28;20483;-60
2022/05/12 09:02:01;;;;;;;1.45;0.45;;;;;;;18.38;55.16;100290.59;5088614;28;20051;-58
2022/05/12 09:05:02;;;;;;;9.13;0.95;;;;;;;18.59;54.76;100302.69;5089609;28;20062;-61
2022/05/12 09:07:35;;;;;;;2.45;0.60;;;;;;;18.58;53.94;100314.09;5107593;28;20055;-61
2022/05/12 09:10:14;;;;;;;1.52;0.40;;;;;;;18.51;53.72;100321.44;5088118;28;20072;-60
2022/05/12 09:12:54;;;;;;;2.75;0.50;;;;;;;18.43;53.63;100312.22;5091788;28;20512;-59
2022/05/12 09:15:27;;;;;;;3.88;0.50;;;;;;;18.29;53.98;100342.59;5096254;28;20440;-58
2022/05/12 09:18:00;;;;;;;1.48;0.50;;;;;;;18.22;53.76;100329.81;5092822;28;20135;-59
2022/05/12 09:20:31;;;;;;;5.82;0.95;;;;;;;18.23;53.65;100324.50;5094936;28;20138;-57
2022/05/12 09:23:01;;;;;;;4.25;0.60;;;;;;;18.21;53.15;100351.72;5096663;28;20376;-59
2022/05/12 09:25:36;;;;;;;1.15;0.40;;;;;;;18.17;53.08;100348.38;5083680;28;20047;-59
2022/05/12 09:28:36;;;;;;;1.80;0.40;;;;;;;18.12;51.95;100352.13;5105326;28;20480;-59
2022/05/12 09:31:23;;;;;;;3.22;0.40;;;;;;;18.08;52.06;100375.03;5087596;28;20048;-61
2022/05/12 09:33:52;;;;;;;3.03;0.40;;;;;;;18.11;53.15;100380.13;5099020;28;20540;-60
2022/05/12 09:36:32;;;;;;;4.20;0.50;;;;;;;18.23;51.10;100384.84;5110229;28;20086;-61
2022/05/12 09:39:00;;;;;;;1.38;0.45;;;;;;;18.43;51.72;100396.19;5089638;28;20109;-62
2022/05/12 09:41:39;;;;;;;3.30;0.32;;;;;;;18.64;51.02;100413.59;5078810;28;20053;-61
2022/05/12 09:44:24;;;;;;;3.03;0.40;;;;;;;18.81;50.13;100413.69;5091430;28;20044;-62
2022/05/12 09:47:06;;;;;;;2.35;0.50;;;;;;;18.95;49.81;100410.38;5083478;28;20055;-63
2022/05/12 09:49:38;;;;;;;0.65;0.30;;;;;;;19.06;49.78;100409.88;5101334;28;20048;-62
2022/05/12 09:52:35;;;;;;;1.10;0.30;;;;;;;19.12;47.68;100422.72;5108408;28;20388;-61
2022/05/12 09:55:16;;;;;;;2.03;0.45;;;;;;;19.08;48.45;100429.88;5043659;28;20126;-61
2022/05/12 09:57:49;;;;;;;1.63;0.45;;;;;;;19.08;49.20;100426.41;5100310;28;20051;-61
2022/05/12 10:00:28;;;;;;;1.55;0.40;;;;;;;19.06;49.11;100449.28;5108142;28;20067;-61
2022/05/12 10:09:06;;;;;;;5.28;0.40;;;;;;;19.02;49.28;100463.47;5087248;28;20320;-59
2022/05/12 10:11:40;;;;;;;4.32;0.60;;;;;;;19.09;49.83;100459.63;5100424;28;20131;-59
2022/05/12 10:14:15;;;;;;;7.43;0.50;;;;;;;19.15;49.18;100461.97;5082349;28;20724;-60
2022/05/12 10:16:46;;;;;;;4.05;0.65;;;;;;;19.18;47.66;100480.22;5087861;28;20056;-62
2022/05/12 10:19:22;;;;;;;1.33;0.47;;;;;;;19.10;47.26;100487.59;5086095;28;20044;-61
2022/05/12 10:21:57;;;;;;;5.50;0.60;;;;;;;19.10;47.34;100490.22;5101221;28;20552;-62
2022/05/12 10:24:39;;;;;;;9.27;0.60;;;;;;;19.12;46.49;100483.13;5102048;28;20063;-62
2022/05/12 10:27:14;;;;;;;13.07;0.98;;;;;;;19.18;46.33;100495.97;5109363;28;20410;-60
2022/05/12 10:29:51;;;;;;;5.78;0.93;;;;;;;19.18;45.91;100493.34;5100316;28;20154;-62
2022/05/12 10:32:42;;;;;;;2.20;0.45;;;;;;;19.29;46.17;100509.47;5106515;28;20162;-61
2022/05/12 10:35:20;;;;;;;5.53;0.77;;;;;;;19.31;44.69;100505.00;5110431;28;20062;-62
2022/05/12 10:38:00;;;;;;;4.22;0.90;;;;;;;19.23;44.79;100528.13;5101914;28;20044;-62
2022/05/12 10:40:38;;;;;;;4.05;0.95;;;;;;;19.06;44.66;100539.44;5074964;28;20041;-60
2022/05/12 10:43:26;;;;;;;8.98;0.95;;;;;;;18.88;45.88;100538.53;5106140;28;20511;-62
2022/05/12 10:46:04;;;;;;;2.30;0.70;;;;;;;18.84;46.29;100560.59;5079292;28;20064;-60
2022/05/12 10:48:52;;;;;;;11.68;0.90;;;;;;;18.84;44.53;100542.22;5091662;28;20105;-62
2022/05/12 10:51:34;;;;;;;4.93;0.82;;;;;;;18.83;44.29;100542.28;5107979;28;20051;-58
2022/05/12 10:54:18;;;;;;;5.05;0.90;;;;;;;18.70;43.71;100547.22;5107201;28;20047;-61
2022/05/12 10:57:00;;;;;;;9.95;1.75;;;;;;;18.66;45.43;100545.63;5101501;28;20039;-60
2022/05/12 10:59:51;;;;;;;5.68;0.80;;;;;;;18.79;44.16;100557.31;5098280;28;20083;-61
2022/05/12 11:02:30;;;;;;;6.78;0.98;;;;;;;19.00;43.96;100555.50;5113078;28;20462;-61
2022/05/12 11:05:10;;;;;;;3.75;0.70;;;;;;;19.24;43.22;100542.97;5095315;28;20054;-60
2022/05/12 11:07:43;;;;;;;4.88;0.88;;;;;;;19.42;43.60;100539.50;5093426;28;20048;-61
2022/05/12 11:10:24;;;;;;;1.83;0.70;;;;;;;19.51;41.72;100552.19;5105250;28;20079;-59
2022/05/12 11:12:54;;;;;;;4.95;1.15;;;;;;;19.39;43.15;100572.97;5086388;28;20384;-60
2022/05/12 11:15:26;;;;;;;9.98;1.23;;;;;;;19.40;43.39;100583.41;5106665;28;20048;-61
2022/05/12 11:18:00;;;;;;;2.17;0.90;;;;;;;19.41;43.74;100571.13;5109620;28;20044;-63
2022/05/12 11:20:47;;;;;;;3.45;1.00;;;;;;;19.33;42.73;100578.50;5088133;28;20048;-62
2022/05/12 11:23:36;;;;;;;4.85;1.30;;;;;;;19.24;43.66;100580.63;5111021;28;20100;-62
2022/05/12 11:26:09;;;;;;;3.55;0.82;;;;;;;19.20;44.14;100573.81;5100735;28;20075;-63
2022/05/12 11:31:37;;;;;;;4.88;1.00;;;;;;;19.41;43.28;100598.25;5106322;28;20054;-63
2022/05/12 11:34:08;;;;;;;7.30;1.30;;;;;;;19.54;42.52;100596.78;5097804;28;20054;-61
2022/05/12 11:36:47;;;;;;;6.63;0.77;;;;;;;19.68;42.26;100579.47;5090464;28;20140;-62
2022/05/12 11:39:55;;;;;;;4.80;0.80;;;;;;;19.80;39.70;100590.28;5099461;28;20054;-61
2022/05/12 11:42:26;;;;;;;5.05;0.70;;;;;;;19.84;40.32;100585.72;5093474;28;20055;-61
2022/05/12 11:45:00;;;;;;;9.15;1.15;;;;;;;19.71;40.15;100589.84;5101330;28;20069;-61
2022/05/12 11:48:15;;;;;;;7.80;1.15;;;;;;;19.71;39.17;100593.34;5104754;28;20112;-62
2022/05/12 11:51:21;;;;;;;5.13;0.90;;;;;;;19.78;38.93;100601.81;5075561;28;20078;-61
2022/05/12 11:53:56;;;;;;;;;;;;;;;19.80;38.72;100599.94;5095754;28;20052;-61
2022/05/12 11:56:43;;;;;;;14.65;2.03;;;;;;;19.86;39.10;100594.38;5112037;28;19919;-57
2022/05/12 11:59:51;;;;;;;3.80;0.65;;;;;;;19.86;38.46;100594.38;5102418;28;20044;-58
2022/05/12 12:02:43;;;;;;;3.97;0.65;;;;;;;19.86;39.22;100625.97;5108739;28;20086;-58